Time;durP1;ratioP1;P1;durP2;ratioP2;P2;SDS_P1;SDS_P2;PMS_P1;PMS_P2;Temp;Humidity;BMP_temperature;BMP_pressure;BME280_temperature;BME280_humidity;BME280_pressure;Samples;Min_cycle;Max_cycle;Signal;HPM_P1;HPM_P2
2022/12/21 00:00:53;;;;;;;3.65;3.35;;;;;;;13.76;100.00;100937.47;5079406;28;20333;-60
2022/12/21 00:03:18;;;;;;;3.35;3.15;;;;;;;13.65;100.00;100927.41;5080248;28;20067;-60
2022/12/21 00:05:44;;;;;;;9.20;3.97;;;;;;;13.70;100.00;100932.97;5083938;28;20094;-59
2022/12/21 00:08:10;;;;;;;3.63;3.33;;;;;;;13.81;100.00;100934.16;5077655;28;20044;-60
2022/12/21 00:10:36;;;;;;;4.47;2.92;;;;;;;13.68;100.00;100927.78;5080418;28;20033;-61
2022/12/21 00:13:02;;;;;;;5.63;3.17;;;;;;;13.90;100.00;100922.94;5081639;28;20049;-58
2022/12/21 00:15:28;;;;;;;;;;;;;;;13.81;100.00;100929.59;5081689;28;20033;-60
2022/12/21 00:17:53;;;;;;;2.73;2.57;;;;;;;13.95;100.00;100929.53;5081802;28;19970;-58
2022/12/21 00:20:19;;;;;;;3.57;3.03;;;;;;;13.78;100.00;100930.03;5078742;28;20044;-59
2022/12/21 00:22:44;;;;;;;3.80;3.45;;;;;;;13.90;100.00;100939.06;5083385;28;20028;-59
2022/12/21 00:25:10;;;;;;;8.70;5.97;;;;;;;14.33;100.00;100929.50;5080356;28;20029;-59
2022/12/21 00:27:35;;;;;;;6.75;4.90;;;;;;;13.51;100.00;100932.84;5081379;28;20035;-60
2022/12/21 00:30:01;;;;;;;4.57;4.20;;;;;;;13.49;100.00;100929.53;5077751;28;20109;-59
2022/12/21 00:32:27;;;;;;;;;;;;;;;13.46;100.00;100924.59;5080074;28;20049;-59
2022/12/21 00:34:54;;;;;;;1.70;1.60;;;;;;;13.60;100.00;100923.50;5075629;28;19913;-60
2022/12/21 00:37:19;;;;;;;5.22;3.67;;;;;;;13.72;100.00;100922.84;5079711;28;20361;-59
2022/12/21 00:39:45;;;;;;;8.13;3.57;;;;;;;13.79;100.00;100926.31;5081210;28;20100;-59
2022/12/21 00:42:14;;;;;;;6.07;4.43;;;;;;;13.82;100.00;100931.25;5080731;28;20040;-58
2022/12/21 00:44:40;;;;;;;4.80;4.33;;;;;;;13.77;100.00;100931.06;5081760;28;20044;-59
2022/12/21 00:47:05;;;;;;;5.63;3.93;;;;;;;13.72;100.00;100937.06;5078170;28;20278;-59
2022/12/21 00:49:31;;;;;;;10.90;6.85;;;;;;;13.71;100.00;100937.31;5082209;28;20288;-59
2022/12/21 00:51:56;;;;;;;2.70;2.50;;;;;;;13.61;100.00;100943.97;5080139;28;20059;-60
2022/12/21 00:54:22;;;;;;;2.60;2.40;;;;;;;13.72;100.00;100938.97;5080647;28;20075;-59
2022/12/21 00:56:48;;;;;;;2.60;2.40;;;;;;;13.61;100.00;100941.28;5079016;28;20045;-59
2022/12/21 00:59:13;;;;;;;4.10;3.70;;;;;;;13.60;100.00;100939.59;5079826;28;20036;-60
2022/12/21 01:01:38;;;;;;;4.30;3.93;;;;;;;13.81;100.00;100945.72;5081481;28;20038;-59
2022/12/21 01:04:04;;;;;;;5.67;5.10;;;;;;;13.41;100.00;100943.19;5082452;28;20043;-58
2022/12/21 01:06:34;;;;;;;3.97;3.33;;;;;;;13.52;100.00;100953.28;5081579;28;20036;-60
2022/12/21 01:09:02;;;;;;;7.43;4.00;;;;;;;14.03;100.00;100948.94;5082361;28;20037;-59
2022/12/21 01:11:28;;;;;;;2.73;2.40;;;;;;;14.33;100.00;100942.13;5081685;28;20270;-59
2022/12/21 01:13:55;;;;;;;3.40;3.15;;;;;;;13.65;100.00;100932.78;5079207;28;20265;-59
2022/12/21 01:16:26;;;;;;;7.17;2.23;;;;;;;13.73;100.00;100940.59;5079884;28;20025;-59
2022/12/21 01:18:52;;;;;;;1.63;1.53;;;;;;;13.84;100.00;100945.31;5075886;28;20266;-60
2022/12/21 01:21:26;;;;;;;7.60;4.47;;;;;;;13.77;100.00;100947.19;5078527;28;20357;-59
2022/12/21 01:23:53;;;;;;;2.43;2.23;;;;;;;13.78;100.00;100954.22;5081660;28;20037;-60
2022/12/21 01:26:19;;;;;;;3.77;3.50;;;;;;;13.51;100.00;100954.34;5079852;28;20296;-59
2022/12/21 01:28:45;;;;;;;3.37;3.10;;;;;;;13.39;100.00;100964.88;5073774;28;20274;-59
2022/12/21 01:31:11;;;;;;;4.60;2.38;;;;;;;13.31;100.00;100967.81;5082089;28;20044;-60
2022/12/21 01:33:37;;;;;;;3.80;3.43;;;;;;;13.18;100.00;100953.34;5083594;28;20040;-59
2022/12/21 01:36:08;;;;;;;8.23;4.47;;;;;;;12.99;100.00;100968.47;5078229;28;20395;-59
2022/12/21 01:38:34;;;;;;;4.73;3.20;;;;;;;13.26;100.00;100970.28;5081560;28;20058;-59
2022/12/21 01:41:00;;;;;;;9.85;4.53;;;;;;;13.15;100.00;100977.13;5081290;28;20305;-59
2022/12/21 01:43:41;;;;;;;;;;;;;;;13.15;100.00;100977.13;5080619;28;20047;-59
2022/12/21 01:46:10;;;;;;;8.13;5.23;;;;;;;13.22;100.00;100969.88;5079989;28;19916;-59
2022/12/21 01:48:43;;;;;;;1.33;1.23;;;;;;;13.20;100.00;100974.66;5081685;28;20265;-57
2022/12/21 01:51:11;;;;;;;10.07;3.27;;;;;;;13.28;100.00;100978.97;5080301;28;20269;-59
2022/12/21 01:53:42;;;;;;;4.13;2.73;;;;;;;13.13;100.00;100977.34;5081361;28;20364;-59
2022/12/21 01:56:12;;;;;;;2.13;1.30;;;;;;;13.16;100.00;100981.47;5077890;28;20266;-58
2022/12/21 01:58:40;;;;;;;5.37;2.73;;;;;;;12.99;100.00;100983.75;5082583;28;20269;-59
2022/12/21 02:01:06;;;;;;;2.35;2.25;;;;;;;13.04;100.00;100976.72;5076981;28;20297;-59
2022/12/21 02:03:39;;;;;;;3.40;2.57;;;;;;;13.01;100.00;100969.09;5080434;28;20100;-59
2022/12/21 02:06:18;;;;;;;8.83;4.37;;;;;;;12.84;100.00;100967.84;5075768;28;20345;-59
2022/12/21 02:08:44;;;;;;;3.73;3.40;;;;;;;12.86;100.00;100974.69;5080090;28;20266;-58
2022/12/21 02:11:11;;;;;;;12.10;3.77;;;;;;;12.93;100.00;100972.00;5081227;28;20293;-60
2022/12/21 02:13:36;;;;;;;;;;;;;;;12.85;100.00;100973.03;5079720;28;20274;-58
2022/12/21 02:16:16;;;;;;;3.30;2.37;;;;;;;12.99;100.00;100971.16;5077050;28;19913;-59
2022/12/21 02:19:02;;;;;;;6.67;3.17;;;;;;;12.87;100.00;100959.38;5079288;28;20032;-58
2022/12/21 02:21:33;;;;;;;5.63;4.43;;;;;;;12.94;100.00;100956.69;5075634;28;20320;-59
2022/12/21 02:24:33;;;;;;;2.20;2.10;;;;;;;12.96;100.00;100952.78;5079590;28;20270;-57
2022/12/21 02:27:11;;;;;;;4.97;4.57;;;;;;;12.93;100.00;100958.56;5077198;28;20293;-58
2022/12/21 02:29:58;;;;;;;1.20;1.20;;;;;;;13.00;100.00;100958.53;5075865;28;20341;-58
2022/12/21 02:32:42;;;;;;;8.20;4.80;;;;;;;12.93;100.00;100955.06;5076736;28;20266;-58
2022/12/21 02:35:52;;;;;;;1.17;1.17;;;;;;;12.85;100.00;100953.41;5075464;28;20037;-58
2022/12/21 02:38:45;;;;;;;3.53;3.13;;;;;;;12.77;100.00;100949.06;5075053;28;20289;-58
2022/12/21 02:41:14;;;;;;;4.33;3.13;;;;;;;12.74;100.00;100947.66;5078877;28;20277;-57
2022/12/21 02:46:59;;;;;;;3.23;2.77;;;;;;;12.86;100.00;100947.00;5063149;28;20280;-58
2022/12/21 02:49:46;;;;;;;4.20;3.83;;;;;;;12.97;100.00;100945.53;5078119;28;20278;-57
2022/12/21 02:52:34;;;;;;;2.83;2.63;;;;;;;12.91;100.00;100947.19;5076372;28;20277;-59
2022/12/21 02:55:00;;;;;;;;;;;;;;;12.98;100.00;100948.03;5079473;28;20107;-57
2022/12/21 02:57:35;;;;;;;3.90;3.53;;;;;;;12.93;100.00;100952.38;5076684;28;19931;-57
2022/12/21 03:00:04;;;;;;;10.57;5.83;;;;;;;12.93;100.00;100950.53;5091427;28;20066;-58
2022/12/21 03:03:47;;;;;;;4.77;4.30;;;;;;;12.77;100.00;100946.38;5074974;28;20258;-59
2022/12/21 03:05:47;;;;;;;4.10;3.40;;;;;;;12.86;100.00;100949.69;5079312;28;20346;-57
2022/12/21 03:08:29;;;;;;;3.50;2.30;;;;;;;13.04;100.00;100933.78;5074952;28;20274;-59
2022/12/21 03:10:59;;;;;;;2.10;2.00;;;;;;;13.14;100.00;100935.19;5077844;28;20352;-58
2022/12/21 03:13:58;;;;;;;3.10;2.90;;;;;;;13.32;100.00;100935.34;5096199;28;20265;-58
2022/12/21 03:16:51;;;;;;;2.25;1.75;;;;;;;13.24;100.00;100935.59;5075328;28;20277;-59
2022/12/21 03:19:29;;;;;;;3.33;3.13;;;;;;;13.00;100.00;100940.59;5082860;28;20041;-57
2022/12/21 03:22:08;;;;;;;4.13;2.83;;;;;;;12.79;100.00;100933.59;5076369;28;20266;-59
2022/12/21 03:24:43;;;;;;;1.03;1.03;;;;;;;12.93;100.00;100931.75;5077748;28;20033;-58
2022/12/21 03:27:23;;;;;;;3.17;2.80;;;;;;;13.04;100.00;100920.34;5081417;28;20349;-57
2022/12/21 03:30:02;;;;;;;7.20;3.30;;;;;;;12.94;100.00;100925.34;5078032;28;20269;-57
2022/12/21 03:32:42;;;;;;;6.40;3.70;;;;;;;12.88;100.00;100920.78;5079969;28;20292;-56
2022/12/21 03:35:17;;;;;;;5.37;4.33;;;;;;;13.08;100.00;100925.28;5077050;28;20258;-58
2022/12/21 03:37:44;;;;;;;5.37;2.70;;;;;;;12.86;100.00;100934.44;5077595;28;20277;-59
2022/12/21 03:40:19;;;;;;;9.87;4.13;;;;;;;12.82;100.00;100930.50;5075877;28;20280;-58
2022/12/21 03:42:51;;;;;;;5.03;4.30;;;;;;;12.82;100.00;100938.56;5078989;28;20274;-58
2022/12/21 03:45:23;;;;;;;2.87;2.63;;;;;;;12.32;100.00;100939.75;5083785;28;20265;-58
2022/12/21 03:47:56;;;;;;;4.67;4.27;;;;;;;12.37;100.00;100936.47;5074702;28;20285;-57
2022/12/21 03:50:25;;;;;;;3.17;2.67;;;;;;;12.45;100.00;100922.84;5073314;28;20358;-57
2022/12/21 03:53:04;;;;;;;4.93;4.43;;;;;;;12.54;100.00;100917.31;5075233;28;20312;-58
2022/12/21 03:55:35;;;;;;;2.30;1.93;;;;;;;12.48;100.00;100919.78;5080827;28;20258;-59
2022/12/21 03:58:02;;;;;;;3.30;3.10;;;;;;;12.73;100.00;100913.78;5082368;28;20352;-58
2022/12/21 04:00:35;;;;;;;5.87;5.43;;;;;;;12.80;100.00;100924.53;5079690;28;20276;-58
2022/12/21 04:03:19;;;;;;;5.60;3.90;;;;;;;12.57;100.00;100920.41;5083181;28;20277;-57
2022/12/21 04:05:52;;;;;;;3.53;3.23;;;;;;;12.59;100.00;100926.41;5075946;28;20262;-60
2022/12/21 04:08:18;;;;;;;3.77;3.40;;;;;;;12.66;100.00;100923.69;5080936;28;20313;-57
2022/12/21 04:10:46;;;;;;;2.78;2.58;;;;;;;12.50;100.00;100927.63;5083069;28;20280;-58
2022/12/21 04:13:11;;;;;;;4.03;3.47;;;;;;;12.51;100.00;100931.13;5081588;28;20040;-58
2022/12/21 04:19:57;;;;;;;3.13;2.93;;;;;;;12.40;100.00;100919.16;5082719;28;20029;-60
2022/12/21 04:21:06;;;;;;;6.23;5.70;;;;;;;12.40;100.00;100916.47;5078761;28;20301;-58
2022/12/21 04:29:02;;;;;;;4.83;3.03;;;;;;;12.83;100.00;100907.16;5078394;28;20282;-58
2022/12/21 04:31:28;;;;;;;8.23;5.10;;;;;;;12.83;100.00;100896.44;5081466;28;20301;-59
2022/12/21 04:33:54;;;;;;;5.63;3.42;;;;;;;12.92;100.00;100908.63;5080733;28;20040;-58
2022/12/21 04:39:04;;;;;;;3.50;3.20;;;;;;;12.45;100.00;100928.22;5082546;28;20033;-59
2022/12/21 04:41:31;;;;;;;3.03;2.83;;;;;;;12.26;100.00;100923.69;5082830;28;20724;-57
2022/12/21 04:43:57;;;;;;;4.53;4.13;;;;;;;12.39;100.00;100931.72;5083502;28;20032;-58
2022/12/21 04:46:23;;;;;;;5.93;5.32;;;;;;;12.36;100.00;100929.47;5081362;28;20289;-57
2022/12/21 04:48:48;;;;;;;5.30;3.80;;;;;;;12.24;100.00;100923.88;5083838;28;20059;-59
2022/12/21 04:51:20;;;;;;;3.30;3.10;;;;;;;12.31;100.00;100923.91;5077008;28;20121;-56
2022/12/21 04:53:46;;;;;;;4.63;3.27;;;;;;;12.65;100.00;100924.72;5081453;28;20273;-55
2022/12/21 04:56:12;;;;;;;5.63;4.95;;;;;;;12.54;100.00;100920.00;5080962;28;20281;-58
2022/12/21 04:58:39;;;;;;;2.40;2.28;;;;;;;12.49;100.00;100920.59;5081320;28;20043;-55
2022/12/21 05:01:08;;;;;;;;;;;;;;;12.27;100.00;100914.63;5079883;28;20039;-58
2022/12/21 05:03:34;;;;;;;5.60;5.20;;;;;;;12.41;100.00;100910.91;5081706;28;19928;-59
2022/12/21 05:05:59;;;;;;;8.17;5.83;;;;;;;12.45;100.00;100905.97;5081232;28;20286;-58
2022/12/21 05:08:25;;;;;;;2.92;2.72;;;;;;;12.47;100.00;100909.25;5079130;28;20036;-58
2022/12/21 05:10:50;;;;;;;6.63;4.03;;;;;;;12.44;100.00;100905.13;5079075;28;20048;-58
2022/12/21 05:13:16;;;;;;;5.00;4.40;;;;;;;12.57;100.00;100912.38;5076928;28;20033;-58
2022/12/21 05:15:41;;;;;;;7.65;6.45;;;;;;;12.32;100.00;100917.50;5078585;28;20033;-58
2022/12/21 05:18:07;;;;;;;3.83;3.53;;;;;;;12.29;100.00;100913.38;5078195;28;20052;-58
2022/12/21 05:20:32;;;;;;;4.60;4.20;;;;;;;12.60;100.00;100919.16;5083083;28;20036;-56
2022/12/21 05:22:58;;;;;;;20.80;3.70;;;;;;;12.39;100.00;100915.63;5081681;28;20097;-58
2022/12/21 05:25:23;;;;;;;11.70;5.67;;;;;;;12.38;100.00;100918.56;5080846;28;20290;-57
2022/12/21 05:27:49;;;;;;;5.87;4.37;;;;;;;12.65;100.00;100918.53;5081214;28;20036;-58
2022/12/21 05:30:14;;;;;;;7.63;6.17;;;;;;;12.52;100.00;100908.66;5078999;28;20298;-56
2022/12/21 05:32:40;;;;;;;11.88;9.07;;;;;;;12.45;100.00;100906.75;5082589;28;20052;-58
2022/12/21 05:35:05;;;;;;;6.07;4.37;;;;;;;12.19;100.00;100903.03;5080223;28;20041;-58
2022/12/21 05:37:31;;;;;;;6.78;6.30;;;;;;;12.37;100.00;100903.50;5081499;28;20025;-55
2022/12/21 05:39:56;;;;;;;3.07;2.87;;;;;;;12.27;100.00;100895.84;5081477;28;20041;-58
2022/12/21 05:42:22;;;;;;;7.13;4.40;;;;;;;12.24;100.00;100904.31;5077069;28;20338;-54
2022/12/21 05:44:47;;;;;;;4.33;4.03;;;;;;;12.05;100.00;100901.38;5083955;28;20064;-56
2022/12/21 05:47:13;;;;;;;3.55;2.88;;;;;;;12.01;100.00;100894.78;5082798;28;20040;-58
2022/12/21 05:49:38;;;;;;;3.80;3.50;;;;;;;12.04;100.00;100905.91;5078421;28;20067;-58
2022/12/21 05:52:04;;;;;;;4.57;4.13;;;;;;;12.15;100.00;100895.63;5081821;28;20296;-58
2022/12/21 05:54:29;;;;;;;8.35;7.55;;;;;;;12.33;100.00;100903.88;5079780;28;20060;-57
2022/12/21 05:56:55;;;;;;;3.20;3.00;;;;;;;12.77;100.00;100888.19;5080847;28;20037;-58
2022/12/21 05:59:20;;;;;;;15.37;7.47;;;;;;;12.61;100.00;100881.41;5084263;28;20028;-58
2022/12/21 06:01:46;;;;;;;6.82;6.30;;;;;;;12.70;100.00;100876.66;5078183;28;20045;-57
2022/12/21 06:04:11;;;;;;;7.47;4.85;;;;;;;12.73;100.00;100872.72;5079160;28;20037;-56
2022/12/21 06:06:37;;;;;;;5.03;4.67;;;;;;;12.55;100.00;100879.53;5082150;28;20040;-59
2022/12/21 06:09:03;;;;;;;3.63;2.70;;;;;;;12.68;100.00;100876.00;5080717;28;20274;-56
2022/12/21 06:11:31;;;;;;;11.25;8.10;;;;;;;12.38;100.00;100884.50;5079993;28;20032;-58
2022/12/21 06:13:57;;;;;;;5.20;3.87;;;;;;;12.29;100.00;100886.56;5082672;28;20040;-57
2022/12/21 06:16:25;;;;;;;12.23;5.70;;;;;;;12.45;100.00;100881.81;5078238;28;20410;-58
2022/12/21 06:18:53;;;;;;;8.37;6.73;;;;;;;12.30;100.00;100888.19;5079322;28;20118;-57
2022/12/21 06:21:20;;;;;;;5.57;4.00;;;;;;;12.27;100.00;100885.94;5074478;28;20277;-55
2022/12/21 06:23:46;;;;;;;5.53;5.13;;;;;;;12.36;100.00;100897.28;5082148;28;20262;-56
2022/12/21 06:26:15;;;;;;;10.57;4.72;;;;;;;12.67;100.00;100885.09;5081016;28;20262;-56
2022/12/21 06:28:41;;;;;;;10.60;3.60;;;;;;;13.39;100.00;100892.34;5078821;28;20057;-58
2022/12/21 06:31:10;;;;;;;14.45;8.38;;;;;;;12.56;100.00;100908.00;5077196;28;20308;-57
2022/12/21 06:33:36;;;;;;;6.80;6.20;;;;;;;12.42;100.00;100907.19;5080092;28;20040;-58
2022/12/21 06:36:04;;;;;;;7.70;6.97;;;;;;;12.57;100.00;100907.00;5080766;28;20269;-58
2022/12/21 06:38:30;;;;;;;6.17;5.53;;;;;;;12.30;100.00;100898.13;5075884;28;20274;-55
2022/12/21 06:40:57;;;;;;;;;;;;;;;12.35;100.00;100901.00;5079450;28;20270;-55
2022/12/21 06:43:27;;;;;;;7.40;6.70;;;;;;;12.27;100.00;100906.56;5077976;28;19942;-56
2022/12/21 06:45:55;;;;;;;14.10;6.93;;;;;;;12.45;100.00;100897.91;5077952;28;20033;-54
2022/12/21 06:48:21;;;;;;;3.97;3.60;;;;;;;12.34;100.00;100899.34;5074598;28;20304;-56
2022/12/21 06:50:55;;;;;;;14.55;7.10;;;;;;;12.22;100.00;100895.63;5074895;28;20273;-51
2022/12/21 06:53:21;;;;;;;3.93;3.53;;;;;;;12.42;100.00;100906.38;5080878;28;20519;-56
2022/12/21 06:55:47;;;;;;;5.80;5.30;;;;;;;12.13;100.00;100908.41;5077251;28;20277;-57
2022/12/21 06:58:13;;;;;;;5.47;4.97;;;;;;;12.16;100.00;100900.78;5079138;28;20265;-57
2022/12/21 07:00:38;;;;;;;10.98;7.68;;;;;;;12.28;100.00;100897.50;5079472;28;20063;-58
2022/12/21 07:03:04;;;;;;;5.00;2.23;;;;;;;12.68;100.00;100894.78;5077431;28;20041;-57
2022/12/21 07:05:30;;;;;;;5.00;3.95;;;;;;;12.94;100.00;100903.03;5075949;28;20054;-57
2022/12/21 07:07:55;;;;;;;6.35;5.68;;;;;;;12.57;100.00;100904.31;5075079;28;20067;-56
2022/12/21 07:10:21;;;;;;;16.93;6.23;;;;;;;12.72;100.00;100906.78;5076856;28;20135;-55
2022/12/21 07:12:47;;;;;;;11.15;3.75;;;;;;;12.80;100.00;100908.44;5075912;28;20029;-56
2022/12/21 07:15:13;;;;;;;46.13;4.97;;;;;;;13.13;100.00;100909.38;5078136;28;20106;-58
2022/12/21 07:17:39;;;;;;;3.80;3.00;;;;;;;12.56;100.00;100909.88;5079441;28;20269;-58
2022/12/21 07:20:05;;;;;;;8.60;5.22;;;;;;;12.64;100.00;100916.91;5078010;28;20049;-58
2022/12/21 07:22:32;;;;;;;3.17;2.97;;;;;;;12.45;100.00;100912.13;5074076;28;20040;-57
2022/12/21 07:24:58;;;;;;;6.60;3.80;;;;;;;12.55;100.00;100910.91;5072425;28;20308;-59
2022/12/21 07:27:23;;;;;;;5.13;3.83;;;;;;;12.52;100.00;100909.44;5076601;28;20278;-54
2022/12/21 07:29:49;;;;;;;2.63;2.42;;;;;;;12.36;100.00;100902.66;5072296;28;20104;-56
2022/12/21 07:32:14;;;;;;;3.47;2.73;;;;;;;12.12;100.00;100907.56;5072678;28;20049;-55
2022/12/21 07:34:39;;;;;;;4.10;3.63;;;;;;;12.33;100.00;100906.56;5080395;28;20044;-56
2022/12/21 07:37:05;;;;;;;4.20;3.97;;;;;;;12.29;100.00;100912.56;5076020;28;20092;-57
2022/12/21 07:39:30;;;;;;;4.07;3.87;;;;;;;12.66;100.00;100909.47;5075224;28;20037;-56
2022/12/21 07:41:56;;;;;;;2.17;2.03;;;;;;;12.26;100.00;100923.69;5075641;28;20039;-57
2022/12/21 07:44:21;;;;;;;3.47;2.37;;;;;;;12.42;100.00;100928.63;5074558;28;20278;-55
2022/12/21 07:46:49;;;;;;;1.20;1.20;;;;;;;12.50;100.00;100948.25;5075451;28;20064;-54
2022/12/21 07:49:18;;;;;;;2.77;2.20;;;;;;;11.90;100.00;100947.09;5077259;28;20273;-56
2022/12/21 07:51:43;;;;;;;8.73;2.70;;;;;;;11.88;100.00;100949.97;5078743;28;20266;-55
2022/12/21 07:54:09;;;;;;;6.80;2.77;;;;;;;12.25;100.00;100951.53;5076783;28;20033;-55
2022/12/21 07:56:34;;;;;;;4.40;4.03;;;;;;;11.95;100.00;100957.19;5074251;28;20124;-56
2022/12/21 07:59:00;;;;;;;1.70;1.60;;;;;;;12.37;100.00;100968.66;5075250;28;20028;-56
2022/12/21 08:01:26;;;;;;;3.28;3.03;;;;;;;12.94;100.00;100968.28;5079371;28;20041;-56
2022/12/21 08:03:52;;;;;;;1.85;1.75;;;;;;;11.94;100.00;100967.09;5074607;28;20096;-56
2022/12/21 08:06:18;;;;;;;4.28;3.63;;;;;;;12.46;100.00;100966.63;5072536;28;20104;-57
2022/12/21 08:08:44;;;;;;;3.33;2.85;;;;;;;12.12;100.00;100966.56;5077589;28;20036;-53
2022/12/21 08:11:13;;;;;;;3.20;2.10;;;;;;;11.98;100.00;100954.09;5077283;28;20045;-57
2022/12/21 08:13:41;;;;;;;2.97;2.77;;;;;;;12.00;100.00;100946.72;5071436;28;20269;-57
2022/12/21 08:16:08;;;;;;;4.47;3.60;;;;;;;11.96;100.00;100948.13;5079912;28;20265;-57
2022/12/21 08:18:33;;;;;;;2.17;2.07;;;;;;;12.01;100.00;100943.03;5078434;28;20265;-55
2022/12/21 08:20:59;;;;;;;3.23;3.03;;;;;;;11.97;100.00;100937.22;5074658;28;20299;-57
2022/12/21 08:23:25;;;;;;;4.20;3.08;;;;;;;11.96;100.00;100948.97;5071756;28;20060;-57
2022/12/21 08:25:51;;;;;;;1.38;1.30;;;;;;;11.88;100.00;100949.97;5079142;28;20044;-55
2022/12/21 08:28:17;;;;;;;3.55;3.30;;;;;;;11.95;100.00;100955.34;5078755;28;20041;-54
2022/12/21 08:30:42;;;;;;;3.80;3.50;;;;;;;11.72;100.00;100955.66;5072934;28;20051;-56
2022/12/21 08:33:09;;;;;;;1.47;1.37;;;;;;;11.74;100.00;100953.63;5073874;28;20049;-57
2022/12/21 08:35:36;;;;;;;1.20;1.20;;;;;;;11.98;100.00;100956.78;5075353;28;20032;-56
2022/12/21 08:38:01;;;;;;;;;;;;;;;11.90;100.00;100953.28;5075964;28;20274;-55
2022/12/21 08:40:27;;;;;;;2.53;2.33;;;;;;;11.84;100.00;100948.72;5074008;28;19975;-56
2022/12/21 08:42:53;;;;;;;3.43;3.10;;;;;;;12.18;100.00;100965.75;5071004;28;20037;-56
2022/12/21 08:45:18;;;;;;;1.97;1.87;;;;;;;12.17;100.00;100950.69;5071795;28;20345;-54
2022/12/21 08:47:44;;;;;;;1.90;1.80;;;;;;;12.24;100.00;100953.38;5069318;28;20071;-57
2022/12/21 08:50:09;;;;;;;2.77;2.57;;;;;;;12.19;100.00;100956.66;5074729;28;20278;-55
2022/12/21 08:52:35;;;;;;;3.83;3.53;;;;;;;12.14;100.00;100958.31;5077212;28;20036;-53
2022/12/21 08:55:00;;;;;;;4.27;3.87;;;;;;;12.52;100.00;100955.06;5075910;28;20037;-55
2022/12/21 08:57:26;;;;;;;3.03;2.80;;;;;;;12.07;100.00;100954.78;5074439;28;20036;-57
2022/12/21 08:59:51;;;;;;;2.88;2.65;;;;;;;12.27;100.00;100957.53;5079452;28;20029;-56
2022/12/21 09:02:17;;;;;;;3.87;2.47;;;;;;;12.23;100.00;100957.09;5080036;28;20045;-56
2022/12/21 09:04:42;;;;;;;3.67;2.30;;;;;;;12.28;100.00;100951.13;5077181;28;20274;-57
2022/12/21 09:07:08;;;;;;;2.05;1.90;;;;;;;12.25;100.00;100940.81;5083425;28;20060;-58
2022/12/21 09:09:34;;;;;;;4.80;2.30;;;;;;;11.87;100.00;100953.69;5079745;28;20063;-56
2022/12/21 09:12:00;;;;;;;1.77;1.67;;;;;;;11.50;100.00;100947.75;5080574;28;20052;-57
2022/12/21 09:14:28;;;;;;;4.38;3.55;;;;;;;11.24;100.00;100945.78;5081118;28;20041;-53
2022/12/21 09:16:54;;;;;;;2.13;2.00;;;;;;;11.38;100.00;100962.72;5085100;28;20048;-56
2022/12/21 09:19:20;;;;;;;2.97;1.90;;;;;;;11.76;100.00;100941.69;5084636;28;20273;-57
2022/12/21 09:21:46;;;;;;;2.83;2.58;;;;;;;11.89;100.00;100953.50;5084346;28;20041;-55
2022/12/21 09:24:13;;;;;;;3.30;1.70;;;;;;;11.94;100.00;100950.19;5078515;28;20029;-57
2022/12/21 09:26:38;;;;;;;4.53;1.10;;;;;;;12.07;100.00;100947.59;5075554;28;20043;-57
2022/12/21 09:29:04;;;;;;;0.90;0.90;;;;;;;12.01;100.00;100945.72;5078694;28;20284;-59
2022/12/21 09:31:29;;;;;;;2.27;2.10;;;;;;;12.22;100.00;100954.59;5077652;28;20133;-54
2022/12/21 09:33:56;;;;;;;36.70;4.80;;;;;;;12.34;100.00;100955.66;5081063;28;20037;-56
2022/12/21 09:36:22;;;;;;;;;;;;;;;12.58;100.00;100961.47;5076510;28;20029;-54
2022/12/21 09:38:48;;;;;;;1.97;1.87;;;;;;;12.67;100.00;100951.34;5074596;28;20010;-52
2022/12/21 09:41:27;;;;;;;0.45;0.45;;;;;;;12.85;100.00;100953.41;5079407;28;20262;-57
2022/12/21 09:44:19;;;;;;;5.77;3.37;;;;;;;13.05;100.00;100959.56;5076965;28;20041;-56
2022/12/21 09:46:48;;;;;;;3.53;2.30;;;;;;;12.99;100.00;100957.75;5075862;28;20319;-54
2022/12/21 09:49:20;;;;;;;12.43;1.90;;;;;;;12.90;100.00;100956.28;5080175;28;20265;-55
2022/12/21 09:51:53;;;;;;;20.43;4.17;;;;;;;13.09;100.00;100948.41;5075017;28;20277;-56
2022/12/21 09:54:27;;;;;;;3.47;3.17;;;;;;;13.12;100.00;100937.25;5075614;28;20258;-54
2022/12/21 09:56:56;;;;;;;13.47;3.50;;;;;;;13.00;100.00;100937.91;5076556;28;20278;-55
2022/12/21 09:59:21;;;;;;;2.90;2.30;;;;;;;12.84;100.00;100946.38;5078129;28;20301;-54
2022/12/21 10:01:47;;;;;;;1.50;1.42;;;;;;;12.74;100.00;100946.81;5077645;28;20259;-54
2022/12/21 10:04:22;;;;;;;1.30;1.20;;;;;;;13.23;100.00;100925.88;5082765;28;20121;-59
2022/12/21 10:07:26;;;;;;;1.73;1.63;;;;;;;13.72;100.00;100933.59;5082598;28;20107;-55
2022/12/21 10:10:11;;;;;;;3.87;3.50;;;;;;;13.33;100.00;100942.38;5057545;28;20316;-57
2022/12/21 10:12:52;;;;;;;1.60;1.50;;;;;;;13.53;100.00;100943.38;5076665;28;20253;-56
2022/12/21 10:15:31;;;;;;;2.87;2.67;;;;;;;14.23;100.00;100949.84;5079113;28;20257;-55
2022/12/21 10:18:23;;;;;;;4.50;4.07;;;;;;;13.51;100.00;100943.59;5067799;28;20266;-56
2022/12/21 10:20:56;;;;;;;4.23;1.90;;;;;;;14.13;100.00;100950.31;5068722;28;20294;-54
2022/12/21 10:23:35;;;;;;;24.93;3.17;;;;;;;13.87;100.00;100944.88;5074016;28;20280;-56
2022/12/21 10:26:05;;;;;;;1.97;1.63;;;;;;;14.23;100.00;100942.59;5072829;28;20342;-54
2022/12/21 10:28:40;;;;;;;3.23;2.70;;;;;;;13.88;100.00;100933.09;5067172;28;20280;-54
2022/12/21 10:31:08;;;;;;;3.30;3.10;;;;;;;14.12;100.00;100935.22;5068069;28;20302;-51
2022/12/21 10:33:38;;;;;;;1.83;1.73;;;;;;;14.28;100.00;100945.47;5069157;28;20360;-55
2022/12/21 10:36:04;;;;;;;7.17;3.13;;;;;;;14.07;100.00;100938.56;5067562;28;20367;-55
2022/12/21 10:38:34;;;;;;;3.10;2.63;;;;;;;14.20;100.00;100937.66;5068489;28;20266;-53
2022/12/21 10:41:04;;;;;;;7.07;4.07;;;;;;;14.35;100.00;100948.13;5072267;28;20052;-58
2022/12/21 10:43:37;;;;;;;8.43;3.37;;;;;;;14.00;100.00;100945.84;5071603;28;20292;-56
2022/12/21 10:46:05;;;;;;;2.17;2.03;;;;;;;14.61;100.00;100941.69;5072168;28;20274;-55
2022/12/21 10:48:32;;;;;;;5.63;3.47;;;;;;;13.91;100.00;100935.34;5076479;28;20292;-56
2022/12/21 10:51:13;;;;;;;2.43;2.30;;;;;;;14.38;100.00;100934.22;5074870;28;20277;-58
2022/12/21 10:53:40;;;;;;;3.93;3.50;;;;;;;13.67;100.00;100925.34;5096020;28;20332;-55
2022/12/21 10:56:06;;;;;;;7.55;3.53;;;;;;;14.52;100.00;100931.41;5095018;28;20332;-55
2022/12/21 10:58:34;;;;;;;3.95;3.65;;;;;;;14.33;100.00;100926.78;5079820;28;20024;-56
2022/12/21 11:01:13;;;;;;;2.87;2.70;;;;;;;14.37;100.00;100923.66;5094156;28;20063;-56
2022/12/21 11:03:39;;;;;;;3.80;3.10;;;;;;;14.39;100.00;100925.09;5098378;28;20276;-55
2022/12/21 11:06:11;;;;;;;;;;;;;;;14.63;100.00;100919.94;5094030;28;20280;-56
2022/12/21 11:08:43;;;;;;;2.67;2.47;;;;;;;14.89;100.00;100913.53;5097844;28;19916;-56
2022/12/21 11:11:26;;;;;;;2.87;2.67;;;;;;;15.03;100.00;100913.38;5095757;28;20296;-56
2022/12/21 11:14:03;;;;;;;16.27;3.70;;;;;;;14.47;100.00;100914.06;5094482;28;20265;-56
2022/12/21 11:16:31;;;;;;;1.77;1.67;;;;;;;14.33;100.00;100916.03;5096214;28;20260;-55
2022/12/21 11:19:00;;;;;;;2.67;2.40;;;;;;;14.05;100.00;100913.75;5096744;28;20269;-57
2022/12/21 11:21:38;;;;;;;1.50;1.40;;;;;;;13.96;100.00;100917.75;5078080;28;20261;-55
2022/12/21 11:24:13;;;;;;;2.20;2.10;;;;;;;14.42;100.00;100918.47;5093913;28;20277;-55
2022/12/21 11:26:44;;;;;;;8.90;3.00;;;;;;;14.40;100.00;100918.69;5091003;28;20277;-56
2022/12/21 11:29:24;;;;;;;1.50;1.07;;;;;;;14.03;100.00;100918.50;5089153;28;20276;-55
2022/12/21 11:31:53;;;;;;;1.30;1.27;;;;;;;13.70;100.00;100924.91;5088347;28;20281;-54
2022/12/21 11:34:40;;;;;;;1.77;1.67;;;;;;;14.03;100.00;100919.34;5071454;28;20285;-54
2022/12/21 11:37:20;;;;;;;1.45;1.27;;;;;;;13.96;100.00;100915.88;5076110;28;20273;-55
2022/12/21 11:39:45;;;;;;;1.37;1.27;;;;;;;13.61;100.00;100917.09;5091675;28;20036;-54
2022/12/21 11:42:22;;;;;;;1.73;1.63;;;;;;;13.65;100.00;100922.84;5086837;28;20287;-55
2022/12/21 11:44:50;;;;;;;11.65;5.15;;;;;;;13.15;100.00;100923.44;5083017;28;20503;-55